Time;durP1;ratioP1;P1;durP2;ratioP2;P2;SDS_P1;SDS_P2;PMS_P1;PMS_P2;Temp;Humidity;BMP_temperature;BMP_pressure;BME280_temperature;BME280_humidity;BME280_pressure;Samples;Min_cycle;Max_cycle;Signal;HPM_P1;HPM_P2
2022/03/06 00:01:09;;;;;;;;;96.00;73.50;;;;;8.35;71.06;101430.97;5058288;28;45613;-62
2022/03/06 00:03:34;;;;;;;;;100.00;76.25;;;;;8.39;70.88;101431.72;5060136;28;45575;-63
2022/03/06 00:05:59;;;;;;;;;95.00;73.75;;;;;8.35;70.59;101414.19;5059240;28;46252;-63
2022/03/06 00:08:25;;;;;;;;;95.00;74.50;;;;;8.30;70.74;101414.28;5040219;28;45370;-63
2022/03/06 00:10:50;;;;;;;;;85.50;68.25;;;;;8.09;70.99;101404.44;5061374;28;45223;-63
2022/03/06 00:13:16;;;;;;;;;95.50;74.25;;;;;8.16;71.25;101429.78;5069661;28;45463;-63
2022/03/06 00:15:42;;;;;;;;;95.50;71.00;;;;;8.06;71.21;101426.56;5064086;28;45255;-64
2022/03/06 00:18:08;;;;;;;;;77.25;62.50;;;;;8.08;71.09;101431.84;5062694;28;45404;-63
2022/03/06 00:20:34;;;;;;;;;98.00;70.75;;;;;8.04;70.42;101425.75;5070333;28;45515;-64
2022/03/06 00:22:59;;;;;;;;;99.00;71.75;;;;;8.02;70.65;101430.22;5064223;28;45540;-63
2022/03/06 00:25:25;;;;;;;;;91.00;69.50;;;;;8.01;70.01;101425.84;5067849;28;45502;-63
2022/03/06 00:27:50;;;;;;;;;102.50;78.00;;;;;8.02;70.65;101430.22;5065216;28;45350;-62
2022/03/06 00:30:16;;;;;;;;;88.50;67.75;;;;;7.98;70.32;101431.25;5067812;28;45224;-63
2022/03/06 00:32:42;;;;;;;;;97.00;69.00;;;;;7.91;70.19;101433.22;5069668;28;45307;-64
2022/03/06 00:35:09;;;;;;;;;97.25;77.25;;;;;7.83;70.23;101431.75;5048782;28;45716;-69
2022/03/06 00:37:34;;;;;;;;;101.25;70.00;;;;;7.75;70.26;101423.16;5060879;28;45429;-63
2022/03/06 00:40:00;;;;;;;;;102.00;81.25;;;;;7.69;69.87;101425.09;5062315;28;45292;-64
2022/03/06 00:42:25;;;;;;;;;98.50;69.75;;;;;7.70;69.86;101431.25;5044330;28;45524;-64
2022/03/06 00:44:52;;;;;;;;;94.00;66.00;;;;;7.62;69.25;101428.84;5066405;28;46100;-63
2022/03/06 00:47:18;;;;;;;;;96.75;69.00;;;;;7.74;68.73;101432.03;5068251;28;45822;-63
2022/03/06 00:49:43;;;;;;;;;87.50;68.75;;;;;7.68;68.75;101415.44;5070270;28;45361;-63
2022/03/06 00:52:09;;;;;;;;;93.75;72.50;;;;;7.79;68.34;101440.69;5052072;28;45693;-63
2022/03/06 00:54:34;;;;;;;;;88.25;64.00;;;;;7.75;67.98;101433.75;5068082;28;45552;-63
2022/03/06 00:56:59;;;;;;;;;93.25;70.75;;;;;7.76;67.64;101430.19;5054030;28;45498;-64
2022/03/06 00:59:25;;;;;;;;;92.50;68.75;;;;;7.80;67.78;101435.34;5045303;28;45304;-64
2022/03/06 01:01:50;;;;;;;;;95.00;75.50;;;;;7.82;66.96;101436.19;5046864;28;45719;-62
2022/03/06 01:04:16;;;;;;;;;94.75;69.25;;;;;7.79;67.11;101435.38;5070824;28;46641;-63
2022/03/06 01:06:41;;;;;;;;;84.50;66.00;;;;;7.78;66.07;101438.94;5070503;28;45658;-64
2022/03/06 01:09:07;;;;;;;;;88.50;64.50;;;;;7.70;65.31;101431.25;5070859;28;45279;-64
2022/03/06 01:11:35;;;;;;;;;88.50;68.50;;;;;7.76;65.04;101436.34;5074573;28;45199;-63
2022/03/06 01:14:01;;;;;;;;;89.25;69.25;;;;;7.73;64.76;101441.75;5073265;28;45523;-62
2022/03/06 01:16:26;;;;;;;;;79.25;62.75;;;;;7.70;65.19;101447.16;5072379;28;45460;-62
2022/03/06 01:18:51;;;;;;;;;96.75;70.75;;;;;7.49;65.27;101421.31;5074899;28;45129;-63
2022/03/06 01:21:17;;;;;;;;;92.25;68.75;;;;;7.45;64.99;101423.19;5070626;28;45227;-63
2022/03/06 01:23:42;;;;;;;;;91.25;70.00;;;;;7.59;65.24;101446.59;5066277;28;45977;-64
2022/03/06 01:26:08;;;;;;;;;95.00;68.00;;;;;7.59;64.89;101444.81;5049606;28;45355;-64
2022/03/06 01:28:34;;;;;;;;;87.25;68.00;;;;;7.57;64.59;101441.34;5067927;28;45486;-62
2022/03/06 01:30:59;;;;;;;;;87.50;67.00;;;;;7.40;65.16;101409.22;5073121;28;45422;-63
2022/03/06 01:33:25;;;;;;;;;93.50;72.00;;;;;7.48;65.22;101440.75;5069828;28;45539;-61
2022/03/06 01:35:50;;;;;;;;;87.25;69.25;;;;;7.43;64.70;101432.97;5068126;28;45366;-63
2022/03/06 01:38:15;;;;;;;;;91.50;69.75;;;;;7.49;64.22;101442.47;5037812;28;45505;-62
2022/03/06 01:40:41;;;;;;;;;89.75;67.75;;;;;7.34;64.15;101428.78;5041982;28;45614;-63
2022/03/06 01:43:06;;;;;;;;;90.25;66.75;;;;;7.40;64.19;101443.63;5066114;28;45317;-63
2022/03/06 01:45:31;;;;;;;;;82.75;62.00;;;;;7.35;64.15;101440.25;5062262;28;45477;-62
2022/03/06 01:47:58;;;;;;;;;92.25;70.50;;;;;7.23;63.90;101416.78;5065186;28;45410;-63
2022/03/06 01:50:30;;;;;;;;;90.75;67.50;;;;;7.25;63.52;101433.47;5066768;28;45316;-63
2022/03/06 01:52:57;;;;;;;;;81.25;61.00;;;;;7.08;62.90;101413.69;5061859;28;45690;-63
2022/03/06 01:55:25;;;;;;;;;87.00;67.00;;;;;7.13;63.23;101445.28;5064545;28;45405;-63
2022/03/06 01:57:52;;;;;;;;;85.75;65.50;;;;;7.24;63.53;101459.06;5060042;28;45588;-62
2022/03/06 02:00:22;;;;;;;;;87.50;63.25;;;;;7.14;62.91;101444.38;5050014;28;44889;-63
2022/03/06 02:02:48;;;;;;;;;88.25;64.50;;;;;7.19;63.64;101445.13;5065938;28;46637;-63
2022/03/06 02:05:14;;;;;;;;;85.75;63.00;;;;;7.15;62.48;101456.69;5041441;28;45205;-64
2022/03/06 02:07:40;;;;;;;;;89.50;69.75;;;;;7.01;62.86;101446.47;5062412;28;45793;-63
2022/03/06 02:10:07;;;;;;;;;79.75;64.00;;;;;6.93;63.22;101437.03;5060333;28;45239;-62
2022/03/06 02:12:32;;;;;;;;;89.75;68.25;;;;;6.99;62.40;101445.66;5060513;28;46042;-62
2022/03/06 02:15:00;;;;;;;;;85.75;63.50;;;;;7.05;62.73;101458.72;5069138;28;45406;-63
2022/03/06 02:17:28;;;;;;;;;84.00;64.00;;;;;6.79;62.78;101445.34;5071174;28;45329;-65
2022/03/06 02:20:01;;;;;;;;;93.75;68.75;;;;;6.76;63.60;101450.69;5075677;28;45518;-64
2022/03/06 02:22:32;;;;;;;;;82.75;61.75;;;;;6.83;63.69;101452.28;5076871;28;45172;-62
2022/03/06 02:24:59;;;;;;;;;90.50;67.00;;;;;6.74;63.44;101431.38;5077598;28;45396;-63
2022/03/06 02:27:25;;;;;;;;;88.25;68.00;;;;;6.67;63.42;101429.81;5077112;28;45611;-63
2022/03/06 02:29:52;;;;;;;;;82.50;62.75;;;;;6.81;62.58;101454.09;5070471;28;44907;-62
2022/03/06 02:32:21;;;;;;;;;79.50;62.25;;;;;6.77;62.90;101457.72;5060066;28;46722;-62
2022/03/06 02:34:48;;;;;;;;;86.25;65.50;;;;;6.63;62.80;101441.34;5065857;28;45346;-63
2022/03/06 02:37:17;;;;;;;;;86.75;68.25;;;;;6.43;63.54;101431.31;5058355;28;45498;-63
2022/03/06 02:39:43;;;;;;;;;82.50;62.25;;;;;6.46;62.97;101447.94;5058362;28;45622;-62
2022/03/06 02:42:10;;;;;;;;;86.25;65.25;;;;;6.40;64.69;101437.56;5059384;28;46147;-63
2022/03/06 02:44:36;;;;;;;;;74.50;60.00;;;;;6.31;63.94;101445.69;5044474;28;45207;-64
2022/03/06 02:47:03;;;;;;;;;90.50;68.75;;;;;6.29;63.94;101442.22;5064339;28;45504;-62
2022/03/06 02:49:29;;;;;;;;;89.75;69.50;;;;;6.18;64.67;101449.56;5069271;28;45480;-62
2022/03/06 02:51:54;;;;;;;;;81.50;63.75;;;;;6.14;64.51;101439.97;5063498;28;45421;-63
2022/03/06 02:54:23;;;;;;;;;85.00;64.75;;;;;6.06;64.46;101432.22;5073319;28;44764;-63
2022/03/06 02:56:48;;;;;;;;;78.25;60.25;;;;;5.91;64.45;101438.75;5068616;28;45223;-63
2022/03/06 02:59:14;;;;;;;;;78.00;60.33;;;;;5.77;64.93;101453.13;5064416;28;45470;-65
2022/03/06 03:01:41;;;;;;;;;80.50;64.00;;;;;5.84;64.95;101457.34;5066936;28;45385;-63
2022/03/06 03:04:11;;;;;;;;;85.50;64.00;;;;;5.82;64.85;101438.91;5067300;28;45642;-64
2022/03/06 03:06:37;;;;;;;;;85.00;65.75;;;;;5.74;63.81;101450.56;5065936;28;45535;-62
2022/03/06 03:09:07;;;;;;;;;62.75;52.25;;;;;5.66;65.11;101456.00;5051246;28;45352;-63
2022/03/06 03:11:33;;;;;;;;;86.75;65.50;;;;;5.55;65.12;101434.25;5058521;28;46891;-64
2022/03/06 03:14:03;;;;;;;;;88.75;68.00;;;;;5.75;64.97;101450.53;5061473;28;45373;-65
2022/03/06 03:16:28;;;;;;;;;86.00;62.75;;;;;5.85;65.08;101456.44;5066478;28;44867;-62
2022/03/06 03:18:54;;;;;;;;;85.50;65.00;;;;;5.56;64.22;101431.56;5064330;28;45571;-63
2022/03/06 03:21:20;;;;;;;;;85.25;66.25;;;;;5.61;63.84;101449.97;5067626;28;45341;-62
2022/03/06 03:23:47;;;;;;;;;82.50;64.00;;;;;5.48;64.90;101419.47;5069834;28;45487;-62
2022/03/06 03:26:13;;;;;;;;;93.75;69.00;;;;;5.74;64.36;101440.88;5066623;28;45484;-62
2022/03/06 03:28:38;;;;;;;;;76.75;58.75;;;;;5.61;64.32;101450.84;5071749;28;45319;-62
2022/03/06 03:31:03;;;;;;;;;85.00;65.25;;;;;5.59;64.37;101435.91;5067041;28;45520;-65
2022/03/06 03:33:29;;;;;;;;;85.25;64.25;;;;;5.67;64.38;101441.03;5061300;28;45338;-62
2022/03/06 03:35:54;;;;;;;;;81.33;63.33;;;;;5.63;63.37;101438.47;5043220;28;45467;-61
2022/03/06 03:38:20;;;;;;;;;79.25;59.00;;;;;5.64;64.08;101460.44;5065002;28;45683;-62
2022/03/06 03:40:47;;;;;;;;;88.50;64.50;;;;;5.62;64.63;101442.00;5067179;28;45417;-65
2022/03/06 03:43:12;;;;;;;;;81.67;59.00;;;;;5.67;63.70;101459.50;5044615;28;46815;-63
2022/03/06 03:45:38;;;;;;;;;81.00;64.25;;;;;5.58;64.42;101461.44;5036108;28;45416;-62
2022/03/06 03:48:03;;;;;;;;;88.75;66.25;;;;;5.55;64.37;101479.09;5060048;28;45271;-65
2022/03/06 03:50:29;;;;;;;;;77.00;61.25;;;;;5.46;64.26;101480.16;5039186;28;45515;-62
2022/03/06 03:52:54;;;;;;;;;87.25;63.50;;;;;5.43;64.28;101474.09;5030258;28;45532;-63
2022/03/06 03:55:20;;;;;;;;;75.00;58.50;;;;;5.32;64.34;101475.16;5045276;28;45690;-62
2022/03/06 03:57:45;;;;;;;;;88.00;67.00;;;;;5.22;65.73;101476.28;5062331;28;45568;-63
2022/03/06 04:00:11;;;;;;;;;85.00;62.00;;;;;5.00;65.72;101482.84;5066586;28;46115;-63
2022/03/06 04:02:36;;;;;;;;;83.67;66.00;;;;;4.88;65.59;101464.63;5066842;28;45579;-62
2022/03/06 04:05:03;;;;;;;;;83.75;63.00;;;;;5.11;66.82;101490.56;5065997;28;45397;-62
2022/03/06 04:07:28;;;;;;;;;75.00;58.00;;;;;4.99;66.50;101482.00;5070396;28;45886;-63
2022/03/06 04:09:53;;;;;;;;;87.33;66.00;;;;;5.05;66.75;101499.44;5064176;28;46776;-62
2022/03/06 04:12:19;;;;;;;;;88.33;68.33;;;;;4.97;66.05;101461.84;5054750;28;46885;-63
2022/03/06 04:14:44;;;;;;;;;92.50;69.00;;;;;5.04;65.99;101505.63;5062275;28;45315;-62
2022/03/06 04:17:09;;;;;;;;;83.00;61.25;;;;;5.04;66.29;101492.44;5066900;28;45457;-63
2022/03/06 04:19:35;;;;;;;;;83.00;65.67;;;;;5.10;66.55;101502.00;5070592;28;45314;-62
2022/03/06 04:22:01;;;;;;;;;80.33;65.33;;;;;5.09;65.71;101501.16;5071901;28;45355;-61
2022/03/06 04:24:26;;;;;;;;;86.00;66.00;;;;;4.90;65.81;101461.06;5056311;28;45397;-63
2022/03/06 04:26:52;;;;;;;;;82.25;66.50;;;;;5.06;66.39;101493.28;5066563;28;45283;-63
2022/03/06 04:29:17;;;;;;;;;81.75;65.50;;;;;5.05;66.13;101494.16;5065890;28;46914;-62
2022/03/06 04:31:43;;;;;;;;;92.67;65.33;;;;;5.04;66.03;101510.88;5067508;28;45469;-62
2022/03/06 04:34:08;;;;;;;;;80.00;64.75;;;;;5.04;66.46;101513.53;5058203;28;45398;-63
2022/03/06 04:36:33;;;;;;;;;86.67;61.33;;;;;4.99;66.13;101496.94;5066746;28;45569;-62
2022/03/06 04:38:59;;;;;;;;;83.75;66.75;;;;;4.97;67.08;101498.75;5075394;28;45167;-63
2022/03/06 04:41:24;;;;;;;;;87.00;69.75;;;;;5.03;66.42;101512.66;5074153;28;45326;-63
2022/03/06 04:43:52;;;;;;;;;88.75;66.00;;;;;4.87;66.77;101492.75;5071603;28;45879;-62
2022/03/06 04:46:17;;;;;;;;;87.33;66.00;;;;;4.90;66.72;101499.72;5045256;28;45529;-63
2022/03/06 04:48:43;;;;;;;;;88.67;67.67;;;;;4.89;67.15;101500.63;5065131;28;45416;-63
2022/03/06 04:51:09;;;;;;;;;86.67;65.67;;;;;5.04;66.26;101521.44;5062078;28;45315;-65
2022/03/06 04:53:34;;;;;;;;;95.33;71.00;;;;;4.99;65.98;101518.91;5063597;28;45346;-64
2022/03/06 04:55:59;;;;;;;;;95.33;70.67;;;;;4.97;66.30;101522.47;5068301;28;45358;-63
2022/03/06 04:58:25;;;;;;;;;88.67;68.00;;;;;4.97;66.47;101518.06;5070787;28;46087;-63
2022/03/06 05:00:50;;;;;;;;;83.00;68.00;;;;;4.99;67.00;101525.94;5072993;28;45947;-63
2022/03/06 05:03:16;;;;;;;;;85.00;64.50;;;;;4.96;66.69;101518.09;5071976;28;45409;-63
2022/03/06 05:05:41;;;;;;;;;83.67;65.00;;;;;4.96;66.47;101518.97;5049771;28;45358;-63
2022/03/06 05:08:07;;;;;;;;;90.33;67.67;;;;;4.98;67.01;101517.16;5069835;28;46194;-61
2022/03/06 05:10:33;;;;;;;;;85.33;65.00;;;;;5.00;66.64;101522.41;5063064;28;45700;-62
2022/03/06 05:12:58;;;;;;;;;82.33;65.00;;;;;4.99;66.73;101525.94;5061546;28;45275;-62
2022/03/06 05:15:23;;;;;;;;;84.33;66.67;;;;;4.85;66.26;101527.94;5062037;28;45616;-61
2022/03/06 05:17:49;;;;;;;;;87.00;66.33;;;;;4.70;66.89;101521.19;5041614;28;48288;-65
2022/03/06 05:20:15;;;;;;;;;83.50;63.25;;;;;4.57;67.41;101524.91;5064412;28;44782;-62
2022/03/06 05:22:41;;;;;;;;;83.00;67.33;;;;;4.58;67.38;101527.53;5067145;28;45237;-64
2022/03/06 05:25:08;;;;;;;;;87.67;64.67;;;;;4.39;67.82;101523.44;5069047;28;45181;-62
2022/03/06 05:27:33;;;;;;;;;82.33;64.00;;;;;4.32;68.11;101508.63;5069892;28;47395;-64
2022/03/06 05:29:59;;;;;;;;;87.00;65.33;;;;;4.45;68.00;101528.63;5064438;28;45357;-63
2022/03/06 05:32:24;;;;;;;;;70.33;60.33;;;;;4.47;68.17;101518.91;5062304;28;45484;-63
2022/03/06 05:34:50;;;;;;;;;81.67;66.33;;;;;4.48;67.94;101531.19;5064011;28;45559;-62
2022/03/06 05:37:15;;;;;;;;;86.00;66.67;;;;;4.39;67.76;101532.19;5049148;28;47614;-62
2022/03/06 05:39:41;;;;;;;;;85.67;66.33;;;;;4.39;67.74;101542.72;5062663;28;45237;-63
2022/03/06 05:42:07;;;;;;;;;85.67;65.00;;;;;4.26;68.21;101513.97;5047071;28;45389;-62
2022/03/06 05:44:32;;;;;;;;;90.33;67.00;;;;;4.39;67.68;101526.94;5063100;28;45474;-63
2022/03/06 05:46:57;;;;;;;;;84.67;64.67;;;;;4.27;68.14;101528.88;5042784;28;46271;-61
2022/03/06 05:49:23;;;;;;;;;86.67;61.67;;;;;4.28;67.92;101543.78;5025856;28;45396;-62
2022/03/06 05:51:48;;;;;;;;;90.00;66.00;;;;;4.34;68.32;101541.06;5055031;28;45413;-63
2022/03/06 05:54:14;;;;;;;;;88.67;67.33;;;;;4.21;68.27;101542.16;5043964;28;45687;-63
2022/03/06 05:56:39;;;;;;;;;88.33;64.67;;;;;4.25;68.36;101539.44;5059580;28;45716;-63
2022/03/06 05:59:05;;;;;;;;;86.33;66.33;;;;;4.37;68.47;101554.19;5061802;28;45443;-62
2022/03/06 06:01:31;;;;;;;;;81.67;65.00;;;;;4.41;68.30;101554.09;5067575;28;45273;-62
2022/03/06 06:03:57;;;;;;;;;80.00;64.00;;;;;4.46;67.88;101558.47;5066786;28;45439;-62
2022/03/06 06:06:24;;;;;;;;;90.33;66.00;;;;;4.48;67.73;101556.66;5066791;28;45409;-61
2022/03/06 06:08:50;;;;;;;;;91.67;68.33;;;;;4.32;67.75;101561.31;5049601;28;45536;-62
2022/03/06 06:11:16;;;;;;;;;88.33;67.67;;;;;4.08;68.84;101541.47;5059485;28;45311;-65
2022/03/06 06:13:41;;;;;;;;;89.67;67.33;;;;;4.08;68.82;101552.00;5060411;28;45548;-61
2022/03/06 06:16:06;;;;;;;;;80.67;66.33;;;;;4.07;69.25;101566.03;5049086;28;45372;-61
2022/03/06 06:18:32;;;;;;;;;97.33;69.33;;;;;4.01;69.60;101566.97;5048014;28;45367;-61
2022/03/06 06:20:57;;;;;;;;;85.67;64.67;;;;;3.77;69.53;101530.47;5034494;28;45379;-62
2022/03/06 06:23:23;;;;;;;;;92.33;66.67;;;;;3.92;69.38;101571.53;5070596;28;45429;-62
2022/03/06 06:25:49;;;;;;;;;92.00;71.67;;;;;3.82;69.94;101561.09;5072890;28;45564;-61
2022/03/06 06:28:14;;;;;;;;;90.67;69.00;;;;;3.88;69.43;101575.06;5068082;28;45246;-62
2022/03/06 06:30:40;;;;;;;;;93.33;68.00;;;;;3.87;69.77;101578.59;5046277;28;45630;-62
2022/03/06 06:33:06;;;;;;;;;89.33;67.67;;;;;3.80;69.93;101572.53;5064835;28;45409;-63
2022/03/06 06:35:32;;;;;;;;;90.33;69.00;;;;;3.72;70.06;101566.50;5068257;28;45290;-62
2022/03/06 06:37:57;;;;;;;;;85.00;65.33;;;;;3.80;70.06;101581.31;5040490;28;45371;-62
2022/03/06 06:40:23;;;;;;;;;97.00;72.33;;;;;3.73;70.48;101584.03;5058329;28;45484;-62
2022/03/06 06:42:48;;;;;;;;;93.00;67.33;;;;;3.68;70.38;101570.94;5067780;28;45635;-63
2022/03/06 06:45:14;;;;;;;;;91.67;70.33;;;;;3.54;70.10;101563.19;5066450;28;45614;-62
2022/03/06 06:47:39;;;;;;;;;87.33;66.67;;;;;3.52;69.85;101575.50;5047004;28;45757;-61
2022/03/06 06:50:05;;;;;;;;;92.67;73.00;;;;;3.67;70.61;101592.00;5065819;28;45812;-62
2022/03/06 06:52:31;;;;;;;;;88.33;71.67;;;;;3.86;69.89;101582.97;5070554;28;45005;-62
2022/03/06 06:54:56;;;;;;;;;98.33;71.33;;;;;4.08;69.21;101597.59;5069960;28;45559;-62
2022/03/06 06:57:22;;;;;;;;;84.00;60.67;;;;;4.06;68.69;101591.50;5062981;28;46885;-62
2022/03/06 06:59:47;;;;;;;;;93.33;71.00;;;;;3.90;68.88;101587.31;5064022;28;45395;-62
2022/03/06 07:02:13;;;;;;;;;87.67;68.00;;;;;3.86;69.18;101580.34;5050143;28;45581;-62
2022/03/06 07:04:38;;;;;;;;;95.67;73.00;;;;;4.00;68.88;101588.94;5068489;28;46204;-63
2022/03/06 07:07:04;;;;;;;;;89.00;69.00;;;;;4.17;68.30;101606.25;5066770;28;45661;-62
2022/03/06 07:09:29;;;;;;;;;95.67;71.67;;;;;4.22;68.55;101607.09;5046605;28;45411;-63
2022/03/06 07:11:55;;;;;;;;;85.33;66.33;;;;;4.31;67.87;101602.56;5060971;28;45643;-63
2022/03/06 07:14:22;;;;;;;;;90.33;69.33;;;;;4.08;67.39;101591.47;5060677;28;45631;-61
2022/03/06 07:16:47;;;;;;;;;97.67;71.67;;;;;4.29;67.48;101614.00;5059965;28;45848;-62
2022/03/06 07:19:13;;;;;;;;;93.00;68.67;;;;;4.30;66.83;101618.38;5058679;28;45438;-61
2022/03/06 07:21:39;;;;;;;;;82.00;65.33;;;;;4.21;67.04;101615.88;5045292;28;45419;-62
2022/03/06 07:24:06;;;;;;;;;94.67;69.00;;;;;4.24;67.27;101618.47;5067928;28;45369;-60
2022/03/06 07:26:31;;;;;;;;;86.33;66.67;;;;;4.31;66.96;101620.13;5068833;28;45383;-60
2022/03/06 07:28:57;;;;;;;;;90.00;71.00;;;;;4.31;67.03;101606.97;5070066;28;44838;-61
2022/03/06 07:31:22;;;;;;;;;89.00;68.33;;;;;4.40;66.79;101617.34;5063550;28;45413;-60
2022/03/06 07:33:48;;;;;;;;;84.67;66.33;;;;;4.44;66.79;101606.75;5060913;28;45703;-61
2022/03/06 07:36:13;;;;;;;;;96.33;74.33;;;;;4.62;66.14;101644.25;5048812;28;45324;-60
2022/03/06 07:38:39;;;;;;;;;90.67;69.33;;;;;4.64;65.76;101638.06;5058327;28;45375;-65
2022/03/06 07:41:04;;;;;;;;;88.33;64.00;;;;;4.66;65.71;101636.28;5058428;28;45922;-64
2022/03/06 07:43:33;;;;;;;;;92.33;72.00;;;;;4.73;65.41;101635.31;5055229;28;46683;-65
2022/03/06 07:45:58;;;;;;;;;80.00;61.00;;;;;4.70;65.22;101648.53;5040474;28;45557;-62
2022/03/06 07:48:23;;;;;;;;;85.33;64.67;;;;;4.71;65.63;101639.72;5053542;28;45318;-63
2022/03/06 07:50:49;;;;;;;;;89.67;66.67;;;;;4.69;65.86;101638.88;5063522;28;45653;-62
2022/03/06 07:53:14;;;;;;;;;88.00;69.00;;;;;4.87;65.21;101652.66;5069095;28;45322;-63
2022/03/06 07:55:42;;;;;;;;;88.75;66.00;;;;;4.86;64.37;101645.66;5076184;28;45397;-60
2022/03/06 07:58:08;;;;;;;;;96.00;72.33;;;;;4.81;64.51;101644.84;5065179;28;45363;-62
2022/03/06 08:00:33;;;;;;;;;90.00;68.33;;;;;4.83;64.27;101648.34;5063104;28;45393;-62
2022/03/06 08:02:58;;;;;;;;;89.67;68.33;;;;;4.87;64.92;101661.44;5064165;28;45276;-63
2022/03/06 08:05:24;;;;;;;;;93.67;68.67;;;;;4.97;64.85;101667.44;5063772;28;45668;-63
2022/03/06 08:08:25;;;;;;;;;85.25;66.25;;;;;4.97;64.34;101667.44;5066293;28;45422;-61
2022/03/06 08:10:51;;;;;;;;;84.50;66.00;;;;;5.08;63.91;101665.53;5068157;28;44922;-61
2022/03/06 08:13:16;;;;;;;;;82.50;65.00;;;;;5.01;63.88;101663.84;5062884;28;45468;-61
2022/03/06 08:16:01;;;;;;;;;90.75;67.50;;;;;5.03;63.31;101669.97;5062982;28;48669;-61
2022/03/06 08:18:27;;;;;;;;;82.75;66.50;;;;;5.09;63.67;101667.25;5061658;28;45532;-63
2022/03/06 08:20:52;;;;;;;;;88.50;67.50;;;;;5.21;63.95;101677.59;5044279;28;45407;-61
2022/03/06 08:23:18;;;;;;;;;90.00;67.50;;;;;5.26;63.18;101688.06;5057598;28;46083;-62
2022/03/06 08:25:43;;;;;;;;;86.75;66.00;;;;;5.32;63.20;101685.31;5041963;28;45297;-61
2022/03/06 08:28:08;;;;;;;;;87.25;68.50;;;;;5.32;62.45;101686.19;5060741;28;45366;-64
2022/03/06 08:30:34;;;;;;;;;84.50;64.25;;;;;5.29;61.59;101691.50;5063745;28;45585;-61
2022/03/06 08:32:59;;;;;;;;;83.75;65.25;;;;;5.28;61.70;101695.06;5061873;28;45462;-62
2022/03/06 08:35:25;;;;;;;;;90.00;65.75;;;;;5.29;61.19;101686.25;5061860;28;45267;-64
2022/03/06 08:37:50;;;;;;;;;89.25;65.75;;;;;5.23;61.05;101685.50;5059858;28;45492;-63
2022/03/06 08:40:16;;;;;;;;;86.00;64.25;;;;;5.14;61.92;101686.50;5058839;28;45415;-62
2022/03/06 08:42:41;;;;;;;;;82.50;64.00;;;;;5.37;61.77;101686.13;5059017;28;46019;-63
2022/03/06 08:45:07;;;;;;;;;78.50;62.50;;;;;5.34;61.68;101673.00;5060729;28;45433;-62
2022/03/06 08:47:32;;;;;;;;;78.00;62.50;;;;;5.44;61.71;101689.50;5065258;28;45623;-64
2022/03/06 08:49:58;;;;;;;;;90.50;66.25;;;;;5.53;60.24;101697.28;5065214;28;45656;-63
2022/03/06 08:52:24;;;;;;;;;90.00;65.25;;;;;5.54;59.04;101694.59;5063495;28;45511;-63
2022/03/06 08:54:49;;;;;;;;;75.00;61.75;;;;;5.45;60.07;101692.13;5064284;28;45453;-63
2022/03/06 08:57:14;;;;;;;;;78.75;57.00;;;;;5.48;59.73;101697.38;5064899;28;45638;-63
2022/03/06 08:59:40;;;;;;;;;82.75;64.00;;;;;5.61;60.04;101692.75;5047393;28;45490;-64
2022/03/06 09:02:05;;;;;;;;;80.50;62.50;;;;;5.87;59.70;101698.41;5043522;28;47787;-64
2022/03/06 09:04:33;;;;;;;;;77.25;58.75;;;;;6.10;59.07;101697.09;5061971;28;45517;-65
2022/03/06 09:06:58;;;;;;;;;85.50;62.75;;;;;6.16;58.46;101681.16;5046822;28;45538;-64
2022/03/06 09:09:24;;;;;;;;;74.75;60.25;;;;;6.49;57.99;101701.56;5051461;28;45411;-63
2022/03/06 09:11:50;;;;;;;;;69.00;57.25;;;;;6.67;56.24;101699.44;5057332;28;45683;-64
2022/03/06 09:14:15;;;;;;;;;76.25;60.50;;;;;6.75;56.65;101686.91;5060079;28;45506;-63
2022/03/06 09:16:41;;;;;;;;;76.50;60.50;;;;;6.69;56.27;101666.78;5060339;28;45494;-64
2022/03/06 09:19:06;;;;;;;;;84.75;59.50;;;;;6.92;54.86;101694.47;5051250;28;45402;-63
2022/03/06 09:21:32;;;;;;;;;69.00;53.75;;;;;6.96;55.15;101697.00;5041081;28;48056;-64
2022/03/06 09:23:57;;;;;;;;;76.75;59.50;;;;;7.13;54.93;101690.41;5060087;28;45240;-64
2022/03/06 09:26:23;;;;;;;;;63.50;52.25;;;;;7.25;54.99;101690.13;5062384;28;45472;-63
2022/03/06 09:28:48;;;;;;;;;74.75;57.25;;;;;7.49;53.11;101696.59;5064020;28;45533;-62
2022/03/06 09:31:15;;;;;;;;;61.25;50.25;;;;;7.61;53.10;101689.19;5062845;28;45257;-62
2022/03/06 09:33:41;;;;;;;;;68.00;57.00;;;;;7.79;53.20;101690.47;5055217;28;45387;-64
2022/03/06 09:36:06;;;;;;;;;67.75;51.00;;;;;7.83;51.44;101680.69;5071444;28;45509;-62
2022/03/06 09:38:32;;;;;;;;;61.25;45.75;;;;;8.07;50.76;101701.16;5071037;28;45240;-65
2022/03/06 09:41:01;;;;;;;;;70.50;56.00;;;;;8.22;52.00;101703.41;5056513;28;46810;-64
2022/03/06 09:43:28;;;;;;;;;69.50;53.25;;;;;8.32;49.66;101703.13;5064560;28;44812;-64
2022/03/06 09:46:07;;;;;;;;;56.50;47.50;;;;;8.39;49.38;101697.66;5073770;28;45295;-63
2022/03/06 09:48:34;;;;;;;;;59.75;47.75;;;;;8.43;48.02;101709.03;5069796;28;45404;-62
2022/03/06 09:51:01;;;;;;;;;73.25;52.50;;;;;8.42;47.85;101705.50;5070139;28;45941;-63
2022/03/06 09:53:27;;;;;;;;;60.00;40.50;;;;;8.33;49.80;101710.16;5049730;28;44788;-62
2022/03/06 09:55:52;;;;;;;;;58.25;48.50;;;;;8.46;49.01;101708.91;5068152;28;45262;-63
2022/03/06 09:58:18;;;;;;;;;70.75;53.50;;;;;8.58;48.45;101719.16;5066658;28;45247;-63
2022/03/06 10:00:43;;;;;;;;;61.75;49.00;;;;;8.48;47.63;101717.72;5066898;28;45416;-63
2022/03/06 10:03:19;;;;;;;;;63.00;47.50;;;;;8.36;48.21;101720.72;5065328;28;45318;-63
2022/03/06 10:05:45;;;;;;;;;57.50;47.00;;;;;8.21;48.41;101709.63;5060557;28;45329;-63
2022/03/06 10:08:17;;;;;;;;;55.25;48.50;;;;;8.31;47.95;101714.66;5067823;28;45381;-62
2022/03/06 10:10:43;;;;;;;;;66.25;53.00;;;;;8.33;48.39;101707.50;5063788;28;45486;-61
2022/03/06 10:13:28;;;;;;;;;64.75;48.75;;;;;8.43;47.79;101714.31;5031010;28;45525;-63
2022/03/06 10:16:10;;;;;;;;;58.50;44.25;;;;;8.44;46.77;101710.75;5062641;28;45333;-63
2022/03/06 10:18:55;;;;;;;;;57.00;43.00;;;;;8.41;45.11;101700.25;5042419;28;45729;-63
2022/03/06 10:21:32;;;;;;;;;51.75;44.50;;;;;8.40;46.02;101701.16;5039801;28;45371;-62
2022/03/06 10:24:01;;;;;;;;;53.75;47.00;;;;;8.59;45.76;101712.94;5057202;28;45665;-62
2022/03/06 10:26:32;;;;;;;;;60.50;45.75;;;;;8.54;45.83;101696.31;5058020;28;45366;-61
2022/03/06 10:29:03;;;;;;;;;47.50;43.50;;;;;8.65;45.65;101711.91;5063530;28;45367;-62
2022/03/06 10:31:31;;;;;;;;;58.00;40.00;;;;;8.70;44.42;101702.03;5065569;28;46484;-62
2022/03/06 10:34:12;;;;;;;;;51.25;42.50;;;;;8.69;44.37;101714.41;5074109;28;45180;-62
2022/03/06 10:36:45;;;;;;;;;51.50;45.25;;;;;8.76;45.78;101702.72;5072801;28;45793;-63
2022/03/06 10:39:21;;;;;;;;;52.25;43.50;;;;;8.78;44.67;101711.50;5047104;28;45491;-63
2022/03/06 10:41:49;;;;;;;;;53.50;41.75;;;;;8.70;42.95;101686.97;5053983;28;45371;-63
2022/03/06 10:44:16;;;;;;;;;42.50;35.75;;;;;8.85;41.12;101691.81;5053119;28;45326;-62
2022/03/06 10:46:56;;;;;;;;;36.50;34.50;;;;;8.82;39.49;101702.50;5050808;28;45219;-64
2022/03/06 10:49:22;;;;;;;;;28.25;24.00;;;;;8.81;39.91;101687.50;5058965;28;45586;-62
2022/03/06 10:51:51;;;;;;;;;38.25;33.00;;;;;8.90;38.22;101710.25;5053575;28;45334;-63
2022/03/06 10:54:18;;;;;;;;;33.50;31.25;;;;;8.89;39.83;101686.41;5057243;28;46097;-62
2022/03/06 10:56:48;;;;;;;;;40.25;30.00;;;;;9.12;38.47;101705.13;5070278;28;45436;-62
2022/03/06 10:59:18;;;;;;;;;23.25;18.50;;;;;9.11;37.86;101700.72;5049357;28;45024;-62
2022/03/06 11:01:45;;;;;;;;;48.50;41.00;;;;;9.26;38.52;101705.56;5067339;28;46922;-61
2022/03/06 11:04:13;;;;;;;;;35.00;30.00;;;;;9.31;38.40;101700.94;5064733;28;45480;-64
2022/03/06 11:06:40;;;;;;;;;31.75;27.75;;;;;9.33;36.78;101698.22;5068419;28;45219;-66
2022/03/06 11:09:13;;;;;;;;;37.00;28.50;;;;;9.22;36.54;101664.09;5071382;28;44860;-65
2022/03/06 11:11:44;;;;;;;;;27.50;24.75;;;;;9.48;36.10;101697.72;5068217;28;46262;-63
2022/03/06 11:14:11;;;;;;;;;33.00;28.00;;;;;9.52;35.80;101698.50;5063054;28;45302;-62